Time;durP1;ratioP1;P1;durP2;ratioP2;P2;SDS_P1;SDS_P2;PMS_P1;PMS_P2;Temp;Humidity;BMP_temperature;BMP_pressure;BME280_temperature;BME280_humidity;BME280_pressure;Samples;Min_cycle;Max_cycle;Signal;HPM_P1;HPM_P2
2021/01/19 00:01:22;;;;;;;1.67;1.57;;;19.90;22.10;;;;;;5034234;28;20168;-50
2021/01/19 00:03:47;;;;;;;2.00;1.80;;;19.90;22.20;;;;;;5034342;28;20256;-50
2021/01/19 00:06:14;;;;;;;1.57;1.47;;;19.90;22.20;;;;;;5034186;28;20164;-50
2021/01/19 00:08:39;;;;;;;1.30;1.20;;;19.90;22.20;;;;;;5033384;28;20251;-51
2021/01/19 00:11:05;;;;;;;1.47;1.30;;;19.90;22.10;;;;;;5034091;28;20290;-51
2021/01/19 00:13:31;;;;;;;2.67;1.57;;;19.90;22.10;;;;;;5034153;28;20160;-49
2021/01/19 00:15:57;;;;;;;1.83;1.40;;;19.90;22.20;;;;;;5034229;28;20155;-50
2021/01/19 00:18:23;;;;;;;1.27;1.07;;;19.90;22.20;;;;;;5033999;28;20187;-51
2021/01/19 00:20:48;;;;;;;1.87;1.27;;;19.90;22.20;;;;;;5033924;28;20202;-50
2021/01/19 00:23:14;;;;;;;2.50;1.60;;;19.90;22.20;;;;;;5033557;28;20167;-50
2021/01/19 00:25:41;;;;;;;1.90;1.50;;;19.90;22.20;;;;;;5034079;28;20238;-52
2021/01/19 00:28:07;;;;;;;1.50;1.40;;;19.90;22.20;;;;;;5033838;28;20403;-49
2021/01/19 00:30:32;;;;;;;1.90;1.70;;;19.90;22.20;;;;;;5033749;28;20202;-50
2021/01/19 00:32:58;;;;;;;1.83;1.70;;;19.80;22.10;;;;;;5033846;28;20164;-50
2021/01/19 00:35:25;;;;;;;1.60;1.50;;;19.90;22.20;;;;;;5033590;28;20639;-50
2021/01/19 00:37:50;;;;;;;2.65;1.95;;;19.90;22.20;;;;;;5033221;28;20164;-50
2021/01/19 00:40:16;;;;;;;1.63;1.53;;;19.90;22.20;;;;;;5033740;28;20199;-50
2021/01/19 00:42:42;;;;;;;1.40;1.30;;;19.90;22.20;;;;;;5033599;28;20623;-51
2021/01/19 00:45:08;;;;;;;1.60;1.50;;;19.90;22.20;;;;;;5033690;28;20192;-49
2021/01/19 00:47:34;;;;;;;1.40;1.30;;;19.90;22.20;;;;;;5033507;28;20191;-49
2021/01/19 00:49:59;;;;;;;1.50;1.40;;;19.90;22.20;;;;;;5033492;28;20195;-48
2021/01/19 00:52:25;;;;;;;2.00;1.80;;;19.90;22.20;;;;;;5032773;28;20735;-51
2021/01/19 00:54:51;;;;;;;1.80;1.70;;;19.90;22.20;;;;;;5033597;28;20631;-51
2021/01/19 00:57:16;;;;;;;1.57;1.40;;;19.90;22.20;;;;;;5033630;28;20570;-51
2021/01/19 00:59:42;;;;;;;1.53;1.43;;;19.90;22.20;;;;;;5033254;28;20190;-50
2021/01/19 01:02:08;;;;;;;1.80;1.40;;;19.90;22.20;;;;;;5031131;28;20258;-51
2021/01/19 01:04:33;;;;;;;2.00;1.90;;;19.90;22.20;;;;;;5033202;28;20638;-49
2021/01/19 01:06:59;;;;;;;1.87;1.60;;;19.90;22.20;;;;;;5033226;28;20684;-49
2021/01/19 01:09:24;;;;;;;1.13;1.03;;;19.90;22.20;;;;;;5032900;28;20160;-51
2021/01/19 01:11:50;;;;;;;1.20;1.10;;;19.90;22.20;;;;;;5033521;28;20191;-50
2021/01/19 01:14:16;;;;;;;1.80;1.43;;;19.90;22.20;;;;;;5033259;28;20566;-50
2021/01/19 01:16:42;;;;;;;3.23;2.00;;;19.90;22.20;;;;;;5033293;28;20247;-50
2021/01/19 01:19:08;;;;;;;1.30;1.20;;;19.90;22.20;;;;;;5033340;28;20184;-51
2021/01/19 01:21:36;;;;;;;2.38;1.63;;;19.90;22.20;;;;;;5016977;28;20438;-49
2021/01/19 01:24:02;;;;;;;1.60;1.33;;;19.90;22.20;;;;;;5036857;28;20155;-50
2021/01/19 01:26:27;;;;;;;3.17;1.80;;;19.90;22.10;;;;;;5037557;28;20183;-50
2021/01/19 01:28:53;;;;;;;2.07;1.60;;;19.90;22.20;;;;;;5037172;28;20507;-50
2021/01/19 01:31:20;;;;;;;1.73;1.63;;;19.90;22.20;;;;;;5037024;28;20163;-51
2021/01/19 01:33:49;;;;;;;1.70;1.60;;;19.90;22.10;;;;;;5037269;28;20172;-51
2021/01/19 01:36:15;;;;;;;1.67;1.55;;;19.90;22.20;;;;;;5037309;28;20251;-50
2021/01/19 01:38:40;;;;;;;1.90;1.40;;;19.90;22.20;;;;;;5036423;28;20711;-50
2021/01/19 01:41:20;;;;;;;2.07;1.57;;;19.90;22.70;;;;;;5036781;28;20373;-51
2021/01/19 01:43:47;;;;;;;1.42;1.33;;;19.90;22.20;;;;;;5036888;28;20480;-49
2021/01/19 01:46:17;;;;;;;1.33;1.10;;;19.90;22.20;;;;;;5036975;28;20167;-51
2021/01/19 01:48:46;;;;;;;1.60;1.38;;;19.90;22.20;;;;;;5036830;28;20163;-50
2021/01/19 01:51:12;;;;;;;1.40;1.30;;;19.90;22.20;;;;;;5036890;28;20170;-50
2021/01/19 01:53:39;;;;;;;1.20;1.10;;;19.90;22.20;;;;;;5035941;28;20160;-51
2021/01/19 01:56:06;;;;;;;1.67;1.58;;;19.90;22.10;;;;;;5036946;28;20507;-50
2021/01/19 01:58:33;;;;;;;1.58;1.20;;;19.90;22.10;;;;;;5036746;28;20612;-49
2021/01/19 02:00:59;;;;;;;2.03;1.67;;;19.90;22.10;;;;;;5036488;28;20266;-49
2021/01/19 02:03:24;;;;;;;1.53;1.37;;;19.90;22.20;;;;;;5036526;28;20717;-51
2021/01/19 02:05:50;;;;;;;1.50;1.40;;;19.90;22.20;;;;;;5036510;28;20381;-49
2021/01/19 02:08:25;;;;;;;1.90;1.50;;;19.90;22.70;;;;;;5035871;28;20656;-50
2021/01/19 02:10:50;;;;;;;1.80;1.08;;;19.90;22.20;;;;;;5036579;28;20406;-51
2021/01/19 02:13:23;;;;;;;1.70;1.20;;;19.90;28.80;;;;;;5036402;28;20186;-50
2021/01/19 02:15:57;;;;;;;1.55;1.45;;;19.90;23.60;;;;;;5036197;28;20156;-51
2021/01/19 02:18:37;;;;;;;1.50;1.40;;;19.90;25.90;;;;;;5036246;28;20509;-51
2021/01/19 02:21:37;;;;;;;1.60;1.50;;;19.90;32.20;;;;;;5036159;28;20179;-51
2021/01/19 02:24:14;;;;;;;1.50;1.35;;;19.90;22.10;;;;;;5035866;28;20162;-51
2021/01/19 02:27:20;;;;;;;1.50;1.25;;;19.90;22.10;;;;;;5036082;28;20151;-51
2021/01/19 02:30:06;;;;;;;1.75;1.50;;;19.90;22.10;;;;;;5036087;28;20167;-50
2021/01/19 02:33:03;;;;;;;1.95;1.85;;;19.90;22.10;;;;;;5035764;28;20242;-51
2021/01/19 02:35:46;;;;;;;1.90;1.50;;;19.90;22.10;;;;;;5035962;28;20160;-49
2021/01/19 02:38:37;;;;;;;1.45;1.27;;;19.90;22.10;;;;;;5035356;28;20160;-49
2021/01/19 02:41:05;;;;;;;1.38;1.27;;;19.90;22.10;;;;;;5000252;28;20196;-51
2021/01/19 02:43:31;;;;;;;1.50;1.17;;;19.90;22.10;;;;;;5035824;28;20156;-50
2021/01/19 02:45:57;;;;;;;1.20;1.02;;;19.90;22.10;;;;;;5035769;28;20163;-50
2021/01/19 02:48:25;;;;;;;2.70;1.55;;;19.90;22.10;;;;;;5035677;28;20159;-50
2021/01/19 02:50:51;;;;;;;2.15;1.60;;;19.90;22.10;;;;;;5035626;28;20163;-50
2021/01/19 02:53:18;;;;;;;1.77;1.20;;;20.00;22.20;;;;;;5035175;28;20243;-51
2021/01/19 02:55:45;;;;;;;1.50;1.38;;;19.90;22.10;;;;;;5035609;28;20215;-49
2021/01/19 02:58:39;;;;;;;1.15;1.00;;;19.90;22.20;;;;;;5035388;28;20178;-50
2021/01/19 03:01:07;;;;;;;1.27;1.17;;;20.00;22.20;;;;;;5035323;28;20186;-50
2021/01/19 03:03:37;;;;;;;1.40;1.30;;;20.00;22.20;;;;;;5035480;28;20511;-51
2021/01/19 03:06:12;;;;;;;1.88;1.70;;;20.00;22.20;;;;;;5035374;28;20168;-50
2021/01/19 03:08:41;;;;;;;1.77;1.42;;;20.00;22.70;;;;;;5034736;28;20221;-50
2021/01/19 03:11:07;;;;;;;1.40;1.20;;;20.00;22.10;;;;;;5035357;28;20159;-51
2021/01/19 03:13:33;;;;;;;2.30;1.23;;;20.00;22.10;;;;;;5035023;28;20194;-50
2021/01/19 03:16:11;;;;;;;1.47;1.37;;;20.00;22.10;;;;;;5035217;28;20573;-49
2021/01/19 03:18:38;;;;;;;1.33;1.10;;;20.00;22.10;;;;;;5035012;28;20438;-50
2021/01/19 03:21:07;;;;;;;1.63;1.52;;;20.00;22.10;;;;;;5035091;28;20151;-49
2021/01/19 03:23:34;;;;;;;2.60;1.40;;;20.00;22.10;;;;;;5034552;28;20239;-50
2021/01/19 03:26:00;;;;;;;1.25;1.15;;;20.00;22.10;;;;;;5035142;28;20188;-50
2021/01/19 03:28:26;;;;;;;1.67;1.58;;;20.00;22.10;;;;;;5034822;28;20167;-49
2021/01/19 03:30:52;;;;;;;1.40;1.30;;;20.00;22.10;;;;;;5034996;28;20604;-50
2021/01/19 03:33:18;;;;;;;2.03;1.55;;;20.00;22.10;;;;;;5034894;28;20160;-49
2021/01/19 03:35:44;;;;;;;1.60;1.17;;;20.00;22.00;;;;;;5034851;28;20164;-49
2021/01/19 03:38:11;;;;;;;1.48;1.35;;;20.00;22.00;;;;;;5034599;28;20160;-50
2021/01/19 03:40:38;;;;;;;1.40;1.30;;;20.00;22.00;;;;;;5034738;28;20183;-49
2021/01/19 03:43:03;;;;;;;1.63;1.38;;;20.00;22.00;;;;;;5034587;28;20159;-49
2021/01/19 03:45:29;;;;;;;1.77;1.67;;;20.00;22.00;;;;;;5034182;28;20148;-49
2021/01/19 03:47:55;;;;;;;1.23;1.13;;;20.00;22.00;;;;;;5034603;28;20155;-49
2021/01/19 03:50:21;;;;;;;1.10;1.00;;;20.00;22.00;;;;;;5034607;28;20766;-49
2021/01/19 03:52:46;;;;;;;1.30;1.20;;;20.10;22.00;;;;;;5034011;28;20205;-50
2021/01/19 03:55:12;;;;;;;1.30;1.20;;;20.10;22.00;;;;;;5034699;28;20174;-49
2021/01/19 03:57:38;;;;;;;1.43;1.33;;;20.10;22.00;;;;;;5034297;28;20263;-49
2021/01/19 04:00:08;;;;;;;1.40;1.20;;;20.10;22.00;;;;;;5016801;28;20674;-49
2021/01/19 04:02:37;;;;;;;1.38;1.27;;;20.10;22.50;;;;;;5033847;28;20266;-50
2021/01/19 04:05:04;;;;;;;1.80;1.25;;;20.10;26.20;;;;;;5034423;28;20164;-49
2021/01/19 04:07:30;;;;;;;1.65;1.20;;;20.10;22.00;;;;;;5033540;28;20223;-49
2021/01/19 04:09:56;;;;;;;1.50;1.10;;;20.10;22.00;;;;;;5034242;28;20180;-50
2021/01/19 04:12:22;;;;;;;1.67;1.37;;;20.10;21.90;;;;;;5016350;28;20176;-49
2021/01/19 04:14:47;;;;;;;1.40;1.10;;;20.10;21.90;;;;;;5016397;28;20171;-49
2021/01/19 04:17:13;;;;;;;1.33;1.20;;;20.10;21.90;;;;;;5034100;28;20171;-49
2021/01/19 04:19:38;;;;;;;1.20;1.10;;;20.10;21.90;;;;;;5034023;28;20200;-49
2021/01/19 04:22:04;;;;;;;1.13;1.03;;;20.20;21.90;;;;;;5033939;28;20159;-50
2021/01/19 04:24:30;;;;;;;1.57;1.20;;;20.20;21.90;;;;;;5033825;28;20164;-50
2021/01/19 04:26:55;;;;;;;1.43;1.33;;;20.20;21.90;;;;;;5033772;28;20164;-50
2021/01/19 04:29:21;;;;;;;1.40;1.30;;;20.20;21.90;;;;;;5033783;28;20543;-49
2021/01/19 04:31:47;;;;;;;1.27;1.17;;;;;;;;;;5033865;28;20571;-49
2021/01/19 04:34:13;;;;;;;1.30;1.10;;;20.20;21.40;;;;;;5033708;28;20542;-50
2021/01/19 04:36:38;;;;;;;1.30;1.20;;;20.20;21.90;;;;;;5033629;28;20453;-50
2021/01/19 04:39:05;;;;;;;1.27;1.13;;;20.20;21.90;;;;;;5033327;28;20192;-49
2021/01/19 04:41:32;;;;;;;1.30;1.20;;;20.20;21.80;;;;;;5033474;28;20200;-49
2021/01/19 04:43:58;;;;;;;1.40;1.30;;;20.20;21.90;;;;;;5033628;28;20160;-49
2021/01/19 04:46:26;;;;;;;1.30;1.20;;;20.20;21.90;;;;;;5033725;28;20151;-49
2021/01/19 04:48:53;;;;;;;1.25;1.15;;;20.20;21.80;;;;;;5033509;28;20166;-50
2021/01/19 04:51:23;;;;;;;1.45;1.35;;;20.20;21.80;;;;;;5033542;28;20206;-49
2021/01/19 04:54:03;;;;;;;1.17;1.08;;;20.20;21.80;;;;;;5033024;28;20159;-49
2021/01/19 04:56:29;;;;;;;1.02;0.93;;;20.20;21.80;;;;;;5032456;28;20156;-49
2021/01/19 04:58:56;;;;;;;1.15;1.05;;;20.20;21.80;;;;;;5033445;28;20191;-49
2021/01/19 05:01:34;;;;;;;1.17;1.05;;;20.20;21.90;;;;;;5033400;28;20182;-50
2021/01/19 05:04:14;;;;;;;1.70;1.40;;;20.20;21.80;;;;;;5033203;28;20152;-50
2021/01/19 05:06:42;;;;;;;1.58;1.48;;;20.20;21.80;;;;;;5033233;28;20152;-49
2021/01/19 05:09:10;;;;;;;1.27;1.17;;;20.20;21.80;;;;;;5032826;28;20151;-49
2021/01/19 05:11:52;;;;;;;1.00;0.95;;;20.20;21.80;;;;;;5033168;28;20251;-50
2021/01/19 05:14:22;;;;;;;1.42;1.30;;;20.40;22.70;;;;;;5033319;28;20164;-50
2021/01/19 05:16:49;;;;;;;1.40;1.30;;;20.20;21.80;;;;;;5033415;28;20159;-49
2021/01/19 05:19:20;;;;;;;1.25;1.15;;;20.20;21.80;;;;;;5033288;28;20647;-49
2021/01/19 05:21:48;;;;;;;1.20;1.10;;;20.20;21.80;;;;;;5033186;28;20152;-50
2021/01/19 05:24:13;;;;;;;1.40;1.30;;;20.20;21.80;;;;;;5032771;28;20159;-49
2021/01/19 05:26:41;;;;;;;1.23;1.13;;;20.20;21.80;;;;;;5033174;28;20160;-48
2021/01/19 05:29:07;;;;;;;1.20;1.10;;;20.20;21.80;;;;;;5033094;28;20613;-50
2021/01/19 05:31:32;;;;;;;1.50;1.20;;;20.20;21.30;;;;;;5033126;28;20618;-49
2021/01/19 05:34:02;;;;;;;1.50;1.30;;;20.30;21.90;;;;;;5033114;28;20199;-50
2021/01/19 05:36:40;;;;;;;1.40;1.15;;;20.20;21.80;;;;;;5033087;28;20186;-50
2021/01/19 05:39:08;;;;;;;1.60;1.00;;;20.20;21.70;;;;;;5032540;28;20221;-50
2021/01/19 05:41:48;;;;;;;0.80;0.80;;;20.30;21.80;;;;;;5032951;28;20538;-49
2021/01/19 05:44:33;;;;;;;1.55;1.35;;;20.30;21.80;;;;;;5032848;28;20183;-50
2021/01/19 05:47:05;;;;;;;1.33;1.23;;;20.30;21.80;;;;;;5033221;28;20156;-50
2021/01/19 05:49:42;;;;;;;1.40;1.30;;;20.30;21.80;;;;;;5033034;28;20160;-49
2021/01/19 05:52:15;;;;;;;1.08;0.90;;;20.30;21.80;;;;;;5032711;28;20163;-50
2021/01/19 05:54:48;;;;;;;1.40;1.08;;;20.30;21.30;;;;;;5032946;28;20156;-49
2021/01/19 05:57:16;;;;;;;1.38;1.17;;;20.30;21.80;;;;;;5032796;28;20160;-49
2021/01/19 05:59:42;;;;;;;2.03;1.55;;;20.30;21.80;;;;;;5032850;28;20183;-49
2021/01/19 06:02:09;;;;;;;1.60;1.50;;;20.30;21.80;;;;;;5032725;28;20180;-50
2021/01/19 06:04:37;;;;;;;1.27;1.15;;;20.30;21.70;;;;;;5015213;28;20163;-49
2021/01/19 06:07:07;;;;;;;1.25;1.15;;;20.30;21.70;;;;;;5032970;28;20242;-49
2021/01/19 06:09:34;;;;;;;1.40;1.13;;;20.30;21.80;;;;;;5036049;28;20183;-49
2021/01/19 06:12:00;;;;;;;1.35;1.25;;;20.30;21.70;;;;;;5036147;28;20608;-49
2021/01/19 06:14:27;;;;;;;1.30;1.20;;;20.90;22.10;;;;;;5036107;28;20158;-49
2021/01/19 06:17:05;;;;;;;1.35;1.25;;;;;;;;;;5036153;28;20163;-49
2021/01/19 06:19:31;;;;;;;1.58;1.38;;;20.30;21.30;;;;;;5036206;28;20266;-49
2021/01/19 06:21:58;;;;;;;1.40;1.30;;;20.30;22.20;;;;;;5036116;28;20207;-49
2021/01/19 06:24:37;;;;;;;1.40;1.30;;;20.30;21.70;;;;;;5035412;28;20155;-50
2021/01/19 06:27:05;;;;;;;3.35;1.05;;;20.30;21.70;;;;;;5036095;28;20163;-49
2021/01/19 06:29:31;;;;;;;1.50;1.40;;;20.30;21.20;;;;;;5036226;28;20202;-50
2021/01/19 06:31:59;;;;;;;1.10;1.00;;;20.40;22.30;;;;;;5035855;28;20239;-49
2021/01/19 06:34:27;;;;;;;1.45;1.10;;;20.40;21.70;;;;;;5035562;28;20174;-50
2021/01/19 06:36:52;;;;;;;1.15;1.05;;;20.40;21.70;;;;;;5035732;28;20164;-49
2021/01/19 06:39:28;;;;;;;1.23;1.13;;;20.40;21.70;;;;;;5035121;28;20199;-51
2021/01/19 06:42:08;;;;;;;1.20;1.10;;;20.40;21.70;;;;;;5035763;28;20191;-49
2021/01/19 06:44:39;;;;;;;1.30;1.20;;;20.40;21.60;;;;;;5035583;28;20147;-51
2021/01/19 06:47:06;;;;;;;1.35;1.13;;;20.40;21.60;;;;;;5035493;28;20243;-49
2021/01/19 06:49:34;;;;;;;1.70;1.60;;;20.40;21.60;;;;;;5035488;28;20160;-49
2021/01/19 06:52:13;;;;;;;1.30;1.20;;;20.40;21.60;;;;;;5035507;28;20630;-51
2021/01/19 06:54:41;;;;;;;1.00;1.00;;;20.50;21.60;;;;;;5035576;28;20152;-50
2021/01/19 06:57:40;;;;;;;1.50;1.10;;;20.50;21.60;;;;;;5035481;28;20160;-50
2021/01/19 07:00:08;;;;;;;1.30;1.20;;;20.50;21.60;;;;;;5021435;28;20211;-50
2021/01/19 07:02:36;;;;;;;1.35;0.95;;;;;;;;;;5034759;28;20171;-50
2021/01/19 07:05:12;;;;;;;0.90;0.90;;;20.50;21.10;;;;;;5034885;28;20289;-50
2021/01/19 07:07:45;;;;;;;1.27;1.02;;;20.50;21.70;;;;;;5034310;28;20646;-49
2021/01/19 07:10:29;;;;;;;1.30;1.20;;;20.50;21.60;;;;;;5035019;28;20163;-49
2021/01/19 07:12:55;;;;;;;1.30;1.20;;;20.50;21.60;;;;;;5034783;28;20159;-50
2021/01/19 07:15:40;;;;;;;1.35;1.25;;;20.50;21.60;;;;;;5034992;28;20156;-49
2021/01/19 07:18:43;;;;;;;1.23;1.13;;;20.50;21.60;;;;;;5034600;28;20156;-50
2021/01/19 07:21:11;;;;;;;1.40;1.30;;;20.50;21.60;;;;;;5033958;28;20197;-50
2021/01/19 07:23:48;;;;;;;0.95;0.95;;;20.50;21.50;;;;;;5034247;28;20164;-49
2021/01/19 07:26:30;;;;;;;1.25;1.15;;;20.50;21.50;;;;;;5034627;28;20179;-50
2021/01/19 07:28:56;;;;;;;1.08;0.88;;;20.50;21.50;;;;;;5034436;28;20247;-50
2021/01/19 07:31:22;;;;;;;1.43;1.20;;;20.50;21.50;;;;;;5034559;28;20556;-49
2021/01/19 07:33:57;;;;;;;1.30;1.20;;;20.50;22.10;;;;;;5034093;28;20153;-49
2021/01/19 07:36:25;;;;;;;1.50;1.40;;;20.50;21.40;;;;;;5034535;28;20151;-51
2021/01/19 07:38:51;;;;;;;0.98;0.93;;;;;;;;;;5034142;28;20152;-50
2021/01/19 07:41:35;;;;;;;1.13;1.02;;;21.50;21.60;;;;;;5033965;28;20160;-50
2021/01/19 07:44:02;;;;;;;1.20;1.10;;;20.60;21.40;;;;;;5034013;28;20184;-50
2021/01/19 07:46:29;;;;;;;1.23;1.13;;;20.60;21.40;;;;;;5034113;28;20302;-49
2021/01/19 07:49:04;;;;;;;1.30;1.20;;;20.60;21.40;;;;;;5033758;28;20159;-50
2021/01/19 07:51:47;;;;;;;1.17;1.08;;;20.60;21.40;;;;;;5033366;28;20163;-49
2021/01/19 07:54:25;;;;;;;1.00;0.90;;;20.60;21.30;;;;;;5033508;28;20166;-49
2021/01/19 07:56:51;;;;;;;1.25;1.15;;;20.70;21.30;;;;;;5033997;28;20163;-49
2021/01/19 07:59:19;;;;;;;1.63;1.20;;;20.70;21.40;;;;;;5033914;28;20199;-50
2021/01/19 08:01:54;;;;;;;1.42;1.25;;;20.70;21.30;;;;;;5033494;28;20183;-49
2021/01/19 08:04:30;;;;;;;1.70;1.15;;;20.70;21.30;;;;;;5032102;28;20242;-49
2021/01/19 08:06:57;;;;;;;1.60;1.50;;;20.70;20.80;;;;;;5015491;28;20671;-50
2021/01/19 08:09:23;;;;;;;1.40;1.10;;;20.70;21.20;;;;;;5013719;28;20575;-51
2021/01/19 08:12:06;;;;;;;1.08;0.98;;;20.70;21.20;;;;;;5031473;28;20236;-51
2021/01/19 08:14:40;;;;;;;2.05;1.13;;;20.70;21.10;;;;;;5030096;28;20172;-50
2021/01/19 08:17:06;;;;;;;1.48;1.13;;;20.80;21.10;;;;;;5026501;28;20186;-50
2021/01/19 08:19:45;;;;;;;1.77;1.40;;;20.80;21.10;;;;;;4994336;28;20282;-50
2021/01/19 08:22:12;;;;;;;1.60;1.50;;;20.70;21.30;;;;;;5030909;28;20191;-49
2021/01/19 08:24:42;;;;;;;2.55;1.88;;;20.70;20.70;;;;;;5031093;28;20168;-50
2021/01/19 08:27:08;;;;;;;3.60;2.10;;;20.70;20.20;;;;;;5031832;28;20186;-50
2021/01/19 08:29:35;;;;;;;1.47;1.37;;;20.70;20.00;;;;;;5030537;28;20183;-51
2021/01/19 08:32:02;;;;;;;2.75;1.50;;;20.70;20.60;;;;;;5030200;28;20431;-50
2021/01/19 08:34:30;;;;;;;1.90;1.58;;;20.70;19.50;;;;;;5031475;28;20171;-50
2021/01/19 08:36:57;;;;;;;1.50;1.40;;;20.70;20.00;;;;;;5029634;28;20242;-50
2021/01/19 08:39:23;;;;;;;2.28;1.88;;;20.70;19.90;;;;;;5029949;28;20210;-50
2021/01/19 08:41:50;;;;;;;1.50;1.40;;;20.70;19.90;;;;;;5030778;28;20647;-50
2021/01/19 08:44:17;;;;;;;1.45;1.23;;;20.70;19.90;;;;;;5031070;28;20179;-51
2021/01/19 08:46:43;;;;;;;4.28;1.50;;;20.70;19.90;;;;;;5029264;28;20180;-50
2021/01/19 08:49:11;;;;;;;1.65;1.38;;;20.80;20.00;;;;;;5028815;28;20171;-49
2021/01/19 08:51:41;;;;;;;3.03;1.35;;;20.80;20.00;;;;;;5032496;28;20174;-50
2021/01/19 08:54:08;;;;;;;4.38;1.75;;;20.80;20.00;;;;;;5030904;28;20274;-48
2021/01/19 08:56:47;;;;;;;1.60;1.50;;;20.80;19.90;;;;;;5032575;28;20171;-50
2021/01/19 08:59:17;;;;;;;2.17;1.70;;;20.80;19.50;;;;;;5028048;28;20206;-51
2021/01/19 09:01:49;;;;;;;2.13;1.45;;;20.80;19.90;;;;;;5030761;28;20184;-50
2021/01/19 09:04:33;;;;;;;1.60;1.25;;;20.90;20.00;;;;;;5031237;28;20171;-50
2021/01/19 09:07:10;;;;;;;1.23;1.13;;;20.90;20.00;;;;;;5031738;28;20215;-50
2021/01/19 09:09:36;;;;;;;1.45;1.35;;;20.90;20.00;;;;;;5012348;28;20271;-50
2021/01/19 09:12:02;;;;;;;2.60;1.30;;;20.90;20.00;;;;;;5030535;28;20182;-50
2021/01/19 09:14:28;;;;;;;2.47;1.55;;;20.90;20.00;;;;;;5031084;28;20195;-49
2021/01/19 09:16:55;;;;;;;1.65;1.52;;;20.90;20.10;;;;;;5029528;28;20167;-50
2021/01/19 09:19:21;;;;;;;1.73;1.63;;;20.90;20.10;;;;;;5031174;28;20658;-50
2021/01/19 09:21:47;;;;;;;1.95;1.65;;;20.90;20.20;;;;;;5031543;28;20271;-50
2021/01/19 09:24:17;;;;;;;1.80;1.63;;;20.90;20.20;;;;;;5031048;28;20564;-50
2021/01/19 09:26:56;;;;;;;3.22;1.45;;;20.90;20.20;;;;;;5029834;28;20172;-50
2021/01/19 09:29:31;;;;;;;1.40;1.30;;;20.90;20.20;;;;;;5020853;28;20168;-50
2021/01/19 09:32:04;;;;;;;1.77;1.50;;;20.90;20.20;;;;;;5030004;28;20183;-49
2021/01/19 09:34:30;;;;;;;2.05;1.52;;;20.90;20.30;;;;;;5030125;28;20176;-50
2021/01/19 09:36:57;;;;;;;2.67;1.45;;;20.80;20.20;;;;;;5028945;28;20183;-50
2021/01/19 09:39:26;;;;;;;3.30;1.55;;;20.90;20.30;;;;;;5024401;28;20199;-50
2021/01/19 09:41:54;;;;;;;0.85;0.85;;;20.90;20.30;;;;;;5030366;28;20168;-51
2021/01/19 09:44:20;;;;;;;1.58;1.48;;;20.80;20.30;;;;;;5034851;28;20236;-50
2021/01/19 09:46:52;;;;;;;2.28;1.20;;;20.80;20.30;;;;;;5034531;28;20176;-50
2021/01/19 09:49:19;;;;;;;1.42;1.15;;;20.90;20.40;;;;;;5033279;28;20176;-50
2021/01/19 09:51:44;;;;;;;1.75;1.55;;;20.90;20.40;;;;;;5035171;28;20627;-51
2021/01/19 09:54:10;;;;;;;2.40;1.60;;;20.90;20.40;;;;;;5027122;28;20262;-51
2021/01/19 09:56:36;;;;;;;2.27;1.60;;;20.90;20.40;;;;;;5051713;28;20168;-51
2021/01/19 09:59:06;;;;;;;1.97;1.53;;;20.80;20.30;;;;;;5033220;28;20261;-50
2021/01/19 10:01:31;;;;;;;2.30;1.50;;;20.90;20.40;;;;;;5033713;28;20179;-49
2021/01/19 10:03:57;;;;;;;3.57;2.17;;;20.80;20.30;;;;;;5034839;28;20263;-50
2021/01/19 10:06:25;;;;;;;2.75;1.92;;;20.80;20.40;;;;;;5033543;28;20453;-49
2021/01/19 10:08:54;;;;;;;2.53;1.35;;;20.90;20.40;;;;;;5032886;28;20176;-50
2021/01/19 10:11:34;;;;;;;2.75;1.55;;;20.90;20.40;;;;;;5033699;28;20180;-50
2021/01/19 10:14:14;;;;;;;1.98;1.30;;;20.90;20.40;;;;;;5033175;28;20592;-50
2021/01/19 10:16:50;;;;;;;1.55;1.45;;;20.90;20.40;;;;;;5031818;28;20178;-49
2021/01/19 10:19:29;;;;;;;1.75;1.60;;;20.90;20.40;;;;;;5032580;28;20239;-50
2021/01/19 10:22:06;;;;;;;2.67;1.30;;;20.90;20.40;;;;;;5033712;28;20191;-49
2021/01/19 10:24:32;;;;;;;1.75;1.63;;;20.90;20.40;;;;;;5030159;28;20160;-51
2021/01/19 10:27:09;;;;;;;3.30;1.95;;;20.90;20.40;;;;;;5033179;28;20191;-51
2021/01/19 10:29:43;;;;;;;3.63;1.90;;;20.90;20.50;;;;;;5032238;28;20222;-50
2021/01/19 10:32:14;;;;;;;1.92;1.45;;;20.90;20.40;;;;;;5032570;28;20182;-49
2021/01/19 10:34:48;;;;;;;1.67;1.45;;;20.90;20.40;;;;;;5031932;28;20179;-51
2021/01/19 10:37:14;;;;;;;1.20;1.10;;;20.90;20.40;;;;;;5031915;28;20274;-50
2021/01/19 10:39:53;;;;;;;4.25;1.45;;;20.90;20.60;;;;;;5032040;28;20210;-50
2021/01/19 10:42:30;;;;;;;2.53;1.75;;;20.90;20.50;;;;;;5028923;28;20162;-51
2021/01/19 10:44:58;;;;;;;3.78;1.85;;;20.90;20.60;;;;;;5028610;28;20163;-49
2021/01/19 10:47:25;;;;;;;3.90;1.40;;;20.80;20.60;;;;;;5033654;28;20230;-51
2021/01/19 10:49:50;;;;;;;2.45;1.73;;;20.90;20.70;;;;;;5033784;28;20627;-50
2021/01/19 10:52:16;;;;;;;3.90;1.20;;;20.90;20.70;;;;;;5030752;28;20198;-50
2021/01/19 10:54:42;;;;;;;2.10;1.63;;;20.90;20.70;;;;;;5032703;28;20188;-50
2021/01/19 10:57:09;;;;;;;2.73;2.00;;;20.80;20.30;;;;;;5031895;28;20175;-49
2021/01/19 10:59:36;;;;;;;2.83;1.40;;;20.90;20.80;;;;;;5034301;28;20203;-50
2021/01/19 11:02:03;;;;;;;1.65;1.48;;;20.80;20.70;;;;;;5029569;28;20258;-50
2021/01/19 11:04:29;;;;;;;2.25;1.40;;;20.90;20.80;;;;;;5033026;28;20191;-49
2021/01/19 11:06:54;;;;;;;2.37;2.10;;;20.90;20.90;;;;;;5011516;28;614767;-50
2021/01/19 11:09:20;;;;;;;2.07;1.30;;;20.90;20.80;;;;;;5033907;28;20207;-50
2021/01/19 11:11:46;;;;;;;2.07;1.70;;;20.90;20.80;;;;;;5032089;28;20180;-50
2021/01/19 11:14:12;;;;;;;2.13;1.40;;;20.90;20.90;;;;;;5032349;28;20539;-49
2021/01/19 11:16:40;;;;;;;2.90;1.73;;;20.90;20.90;;;;;;5033111;28;20405;-50
2021/01/19 11:19:07;;;;;;;3.50;2.20;;;20.90;20.90;;;;;;5031635;28;20429;-50
2021/01/19 11:21:35;;;;;;;1.98;1.30;;;20.90;20.90;;;;;;5033241;28;20210;-51
2021/01/19 11:24:02;;;;;;;2.65;1.80;;;20.90;20.90;;;;;;5032047;28;20627;-50
2021/01/19 11:26:28;;;;;;;2.40;1.80;;;20.90;20.80;;;;;;5033882;28;20222;-51
2021/01/19 11:28:54;;;;;;;3.75;1.60;;;20.90;20.90;;;;;;5032715;28;20175;-50
2021/01/19 11:31:22;;;;;;;4.33;1.40;;;20.90;20.80;;;;;;5031902;28;20176;-49
2021/01/19 11:33:48;;;;;;;2.90;1.30;;;20.90;20.90;;;;;;5033353;28;20396;-51
2021/01/19 11:36:27;;;;;;;2.70;1.53;;;20.90;20.40;;;;;;5030620;28;20183;-50
2021/01/19 11:38:54;;;;;;;3.60;1.40;;;20.90;20.90;;;;;;5030513;28;20206;-49
2021/01/19 11:41:26;;;;;;;3.05;1.45;;;20.90;20.90;;;;;;5033961;28;20199;-49
2021/01/19 11:43:52;;;;;;;2.00;1.10;;;20.90;20.70;;;;;;5026588;28;20179;-50
2021/01/19 11:46:29;;;;;;;2.50;1.73;;;20.90;20.80;;;;;;5032542;28;20214;-50
2021/01/19 11:48:57;;;;;;;3.13;1.73;;;20.90;20.80;;;;;;5031475;28;20651;-49
2021/01/19 11:51:25;;;;;;;2.10;1.90;;;20.90;20.80;;;;;;5031921;28;20180;-49
2021/01/19 11:53:53;;;;;;;5.70;1.63;;;20.90;20.90;;;;;;5032876;28;20210;-50
2021/01/19 11:56:20;;;;;;;3.28;2.10;;;20.90;20.90;;;;;;5032544;28;20176;-49
2021/01/19 11:58:46;;;;;;;1.83;1.60;;;20.90;20.90;;;;;;5030868;28;20223;-49
2021/01/19 12:01:22;;;;;;;4.40;1.55;;;20.90;20.70;;;;;;5024072;28;20184;-49
2021/01/19 12:03:48;;;;;;;3.47;1.88;;;20.90;20.80;;;;;;5031486;28;20187;-49
2021/01/19 12:06:14;;;;;;;3.90;2.27;;;20.90;20.80;;;;;;5031056;28;20171;-50
2021/01/19 12:08:40;;;;;;;4.88;2.17;;;20.80;20.70;;;;;;5031115;28;20463;-49
2021/01/19 12:11:08;;;;;;;2.88;1.50;;;20.90;20.80;;;;;;5030410;28;20600;-49
2021/01/19 12:13:35;;;;;;;1.95;1.10;;;20.80;20.80;;;;;;5032918;28;20171;-50
2021/01/19 12:16:01;;;;;;;2.53;1.50;;;20.90;20.90;;;;;;5026488;28;20184;-49
2021/01/19 12:18:27;;;;;;;2.80;1.77;;;20.90;20.90;;;;;;5030286;28;20180;-49
2021/01/19 12:20:52;;;;;;;1.77;1.57;;;20.80;20.80;;;;;;5032271;28;20207;-50
2021/01/19 12:23:18;;;;;;;2.13;1.57;;;20.90;20.80;;;;;;5031756;28;21017;-50
2021/01/19 12:25:43;;;;;;;3.47;2.10;;;20.90;20.90;;;;;;5027879;28;20528;-51
2021/01/19 12:28:09;;;;;;;2.20;1.73;;;20.90;20.80;;;;;;5030176;28;20210;-50
2021/01/19 12:30:35;;;;;;;2.10;1.90;;;20.90;20.80;;;;;;5023687;28;20249;-50
2021/01/19 12:33:00;;;;;;;1.90;1.70;;;20.90;20.80;;;;;;5042556;28;20557;-49
2021/01/19 12:35:26;;;;;;;2.50;1.60;;;20.90;20.90;;;;;;5024680;28;20248;-49
2021/01/19 12:37:55;;;;;;;2.20;1.80;;;21.00;20.90;;;;;;5030571;28;20166;-49
2021/01/19 12:40:21;;;;;;;1.98;1.42;;;21.00;20.80;;;;;;5029673;28;20283;-49
2021/01/19 12:42:48;;;;;;;3.25;1.40;;;19.70;19.80;;;;;;5021503;28;20195;-50
2021/01/19 12:45:14;;;;;;;4.28;1.83;;;21.00;20.70;;;;;;5028787;28;20183;-49
2021/01/19 12:47:39;;;;;;;4.70;2.33;;;21.10;20.70;;;;;;5027295;28;20168;-50
2021/01/19 12:50:05;;;;;;;3.10;1.87;;;21.10;20.60;;;;;;5028430;28;20187;-50
2021/01/19 12:52:31;;;;;;;2.03;1.65;;;21.10;20.10;;;;;;5029992;28;20249;-49
2021/01/19 12:54:57;;;;;;;3.07;1.70;;;21.10;20.50;;;;;;5032501;28;20179;-50
2021/01/19 12:57:23;;;;;;;4.73;1.90;;;21.10;20.50;;;;;;5031442;28;20249;-51
2021/01/19 12:59:48;;;;;;;1.43;1.30;;;21.10;20.50;;;;;;5029859;28;20631;-49